Epic Capri — 9HA2845 — position and weather

sailwx.info

Track history (hours):
 
Tides and Currents Weather Stations Pressure Air Temp Water Temp Dewpoint Dewpoint Depression Visibility Wind Speed Wind Dir Waves Ship Positions

Epic Capri

Last reported at 2015-Mar-29 04:11 UTC. Time now 2015-Mar-29 06:07 UTC.
Position N 38°15' W 009°38'.

Length 99 m; draft 5.4 m.

Type: Tanker. MMSI: 256325000.

Date/timePositionNaut miles runAvg speedWind from/ knotsBaromVisibWave heightAir tempDewpointWater temp
2015-Mar-29 04:11N 38°15' W 009°38'5 8.0
2015-Mar-29 03:33N 38°13' W 009°32'8 8.4
2015-Mar-29 02:33N 38°09' W 009°22'8 8.2
2015-Mar-29 01:33N 38°06' W 009°13'8 8.2
2015-Mar-29 00:33N 38°02' W 009°04'8 8.5
2015-Mar-28 23:33N 37°57' W 008°55'2 1.5
2015-Mar-28 22:31N 37°57' W 008°53'0 0.0
2015-Mar-28 21:31N 37°57' W 008°53'0 0.0
2015-Mar-28 20:28N 37°57' W 008°53'0 0.0
2015-Mar-28 19:31N 37°57' W 008°53'0 0.0
2015-Mar-28 18:31N 37°57' W 008°53'0 0.0
2015-Mar-28 17:28N 37°57' W 008°53'0 0.0
2015-Mar-28 16:31N 37°57' W 008°53'0 0.0
2015-Mar-28 15:31N 37°57' W 008°53'0 0.0
2015-Mar-28 14:31N 37°57' W 008°53'0 0.0
2015-Mar-28 13:31N 37°57' W 008°53'0 0.0
2015-Mar-28 12:31N 37°57' W 008°53'0 0.0
2015-Mar-28 11:31N 37°57' W 008°53'0 0.0
2015-Mar-28 10:31N 37°57' W 008°53'0 0.0
2015-Mar-28 09:31N 37°57' W 008°53'0 0.0
2015-Mar-28 08:31N 37°57' W 008°53'0 0.0
2015-Mar-28 07:31N 37°57' W 008°53'0 0.0
2015-Mar-28 06:31N 37°57' W 008°53'2 1.7
2015-Mar-28 05:32N 37°55' W 008°53'7 6.9
2015-Mar-28 04:33N 37°51' W 008°59'9 9.0
2015-Mar-28 03:33N 37°45' W 009°08'9 9.0
2015-Mar-28 02:33N 37°39' W 009°17'  
2015-Mar-22 16:33N 37°41' W 009°13'10 9.9
2015-Mar-22 15:33N 37°48' W 009°04'9 9.6
2015-Mar-22 14:33N 37°54' W 008°54'3 3.4
2015-Mar-22 13:33N 37°57' W 008°53'0 0.0
2015-Mar-22 12:33N 37°57' W 008°53'0 0.0
2015-Mar-22 11:33N 37°57' W 008°53'0 0.0
2015-Mar-22 10:33N 37°57' W 008°53'0 0.0
2015-Mar-22 09:32N 37°57' W 008°53'0 0.0
2015-Mar-22 08:33N 37°57' W 008°53'0 0.0
2015-Mar-22 07:33N 37°57' W 008°53'0 0.0
2015-Mar-22 06:33N 37°57' W 008°53'0 0.0
2015-Mar-22 05:33N 37°57' W 008°53'0 0.0
2015-Mar-22 04:33N 37°57' W 008°53'0 0.0
2015-Mar-22 03:33N 37°57' W 008°53'0 0.0
2015-Mar-22 02:33N 37°57' W 008°53'0 0.0
2015-Mar-22 01:33N 37°57' W 008°53'0 0.0
2015-Mar-22 00:33N 37°57' W 008°53'0 0.0
2015-Mar-21 23:33N 37°57' W 008°53'0 0.0
2015-Mar-21 22:33N 37°57' W 008°53'0 0.0
2015-Mar-21 21:33N 37°57' W 008°53'0 0.0
2015-Mar-21 20:33N 37°57' W 008°53'0 0.0
2015-Mar-21 19:33N 37°57' W 008°53'0 0.0
2015-Mar-21 18:33N 37°57' W 008°53'0 0.0
2015-Mar-21 17:33N 37°57' W 008°53'0 0.0
2015-Mar-21 16:32N 37°57' W 008°53'0 0.0
2015-Mar-21 15:33N 37°57' W 008°53'0 0.0
2015-Mar-21 14:32N 37°57' W 008°53'0 0.0
2015-Mar-21 13:32N 37°57' W 008°53'0 0.0
2015-Mar-21 12:32N 37°57' W 008°53'0 0.0
2015-Mar-21 11:32N 37°57' W 008°53'0 0.0
2015-Mar-21 10:32N 37°57' W 008°53'0 0.0
2015-Mar-21 09:32N 37°57' W 008°53'0 0.0
2015-Mar-21 08:32N 37°57' W 008°53'0 0.0
2015-Mar-21 07:32N 37°57' W 008°53'0 0.0
2015-Mar-21 06:32N 37°57' W 008°53'0 0.0
2015-Mar-21 05:32N 37°57' W 008°53'0 0.0
2015-Mar-21 04:32N 37°57' W 008°53'0 0.0
2015-Mar-21 03:32N 37°57' W 008°53'0 0.0
2015-Mar-21 02:32N 37°57' W 008°53'0 0.0
2015-Mar-21 01:32N 37°57' W 008°53'0 0.0
2015-Mar-21 00:32N 37°57' W 008°53'0 0.0
2015-Mar-20 23:32N 37°57' W 008°53'0 0.0
2015-Mar-20 22:32N 37°57' W 008°53'0 0.0
2015-Mar-20 21:32N 37°57' W 008°53'1 1.5
2015-Mar-20 20:33N 37°56' W 008°53'2 2.4
2015-Mar-20 19:33N 37°56' W 008°56'2 2.0
2015-Mar-20 18:33N 37°58' W 008°56'9 9.3
2015-Mar-20 17:33N 38°02' W 009°06'9 9.5
2015-Mar-20 16:33N 38°06' W 009°18'10 9.5
2015-Mar-20 15:33N 38°09' W 009°29'10 9.5
2015-Mar-20 14:33N 38°13' W 009°40'34 8.2
2015-Mar-20 10:24N 38°37' W 010°11'  
Track history (hours):
 
Tides and Currents Weather Stations Pressure Air Temp Water Temp Dewpoint Dewpoint Depression Visibility Wind Speed Wind Dir Waves Ship Positions

Epic Capri

Last reported at 2015-Mar-29 04:11 UTC. Time now 2015-Mar-29 06:07 UTC.
Position N 38°15' W 009°38'.

Length 99 m; draft 5.4 m.

Type: Tanker. MMSI: 256325000.

Date/timePositionNaut miles runAvg speedWind from/ knotsBaromVisibWave heightAir tempDewpointWater temp
2015-Mar-29 04:11N 38°15' W 009°38'5 8.0
2015-Mar-29 03:33N 38°13' W 009°32'8 8.4
2015-Mar-29 02:33N 38°09' W 009°22'8 8.2
2015-Mar-29 01:33N 38°06' W 009°13'8 8.2
2015-Mar-29 00:33N 38°02' W 009°04'8 8.5
2015-Mar-28 23:33N 37°57' W 008°55'2 1.5
2015-Mar-28 22:31N 37°57' W 008°53'0 0.0
2015-Mar-28 21:31N 37°57' W 008°53'0 0.0
2015-Mar-28 20:28N 37°57' W 008°53'0 0.0
2015-Mar-28 19:31N 37°57' W 008°53'0 0.0
2015-Mar-28 18:31N 37°57' W 008°53'0 0.0
2015-Mar-28 17:28N 37°57' W 008°53'0 0.0
2015-Mar-28 16:31N 37°57' W 008°53'0 0.0
2015-Mar-28 15:31N 37°57' W 008°53'0 0.0
2015-Mar-28 14:31N 37°57' W 008°53'0 0.0
2015-Mar-28 13:31N 37°57' W 008°53'0 0.0
2015-Mar-28 12:31N 37°57' W 008°53'0 0.0
2015-Mar-28 11:31N 37°57' W 008°53'0 0.0
2015-Mar-28 10:31N 37°57' W 008°53'0 0.0
2015-Mar-28 09:31N 37°57' W 008°53'0 0.0
2015-Mar-28 08:31N 37°57' W 008°53'0 0.0
2015-Mar-28 07:31N 37°57' W 008°53'0 0.0
2015-Mar-28 06:31N 37°57' W 008°53'2 1.7
2015-Mar-28 05:32N 37°55' W 008°53'7 6.9
2015-Mar-28 04:33N 37°51' W 008°59'9 9.0
2015-Mar-28 03:33N 37°45' W 009°08'9 9.0
2015-Mar-28 02:33N 37°39' W 009°17'  
2015-Mar-22 16:33N 37°41' W 009°13'10 9.9
2015-Mar-22 15:33N 37°48' W 009°04'9 9.6
2015-Mar-22 14:33N 37°54' W 008°54'3 3.4
2015-Mar-22 13:33N 37°57' W 008°53'0 0.0
2015-Mar-22 12:33N 37°57' W 008°53'0 0.0
2015-Mar-22 11:33N 37°57' W 008°53'0 0.0
2015-Mar-22 10:33N 37°57' W 008°53'0 0.0
2015-Mar-22 09:32N 37°57' W 008°53'0 0.0
2015-Mar-22 08:33N 37°57' W 008°53'0 0.0
2015-Mar-22 07:33N 37°57' W 008°53'0 0.0
2015-Mar-22 06:33N 37°57' W 008°53'0 0.0
2015-Mar-22 05:33N 37°57' W 008°53'0 0.0
2015-Mar-22 04:33N 37°57' W 008°53'0 0.0
2015-Mar-22 03:33N 37°57' W 008°53'0 0.0
2015-Mar-22 02:33N 37°57' W 008°53'0 0.0
2015-Mar-22 01:33N 37°57' W 008°53'0 0.0
2015-Mar-22 00:33N 37°57' W 008°53'0 0.0
2015-Mar-21 23:33N 37°57' W 008°53'0 0.0
2015-Mar-21 22:33N 37°57' W 008°53'0 0.0
2015-Mar-21 21:33N 37°57' W 008°53'0 0.0
2015-Mar-21 20:33N 37°57' W 008°53'0 0.0
2015-Mar-21 19:33N 37°57' W 008°53'0 0.0
2015-Mar-21 18:33N 37°57' W 008°53'0 0.0
2015-Mar-21 17:33N 37°57' W 008°53'0 0.0
2015-Mar-21 16:32N 37°57' W 008°53'0 0.0
2015-Mar-21 15:33N 37°57' W 008°53'0 0.0
2015-Mar-21 14:32N 37°57' W 008°53'0 0.0
2015-Mar-21 13:32N 37°57' W 008°53'0 0.0
2015-Mar-21 12:32N 37°57' W 008°53'0 0.0
2015-Mar-21 11:32N 37°57' W 008°53'0 0.0
2015-Mar-21 10:32N 37°57' W 008°53'0 0.0
2015-Mar-21 09:32N 37°57' W 008°53'0 0.0
2015-Mar-21 08:32N 37°57' W 008°53'0 0.0
2015-Mar-21 07:32N 37°57' W 008°53'0 0.0
2015-Mar-21 06:32N 37°57' W 008°53'0 0.0
2015-Mar-21 05:32N 37°57' W 008°53'0 0.0
2015-Mar-21 04:32N 37°57' W 008°53'0 0.0
2015-Mar-21 03:32N 37°57' W 008°53'0 0.0
2015-Mar-21 02:32N 37°57' W 008°53'0 0.0
2015-Mar-21 01:32N 37°57' W 008°53'0 0.0
2015-Mar-21 00:32N 37°57' W 008°53'0 0.0
2015-Mar-20 23:32N 37°57' W 008°53'0 0.0
2015-Mar-20 22:32N 37°57' W 008°53'0 0.0
2015-Mar-20 21:32N 37°57' W 008°53'1 1.5
2015-Mar-20 20:33N 37°56' W 008°53'2 2.4
2015-Mar-20 19:33N 37°56' W 008°56'2 2.0
2015-Mar-20 18:33N 37°58' W 008°56'9 9.3
2015-Mar-20 17:33N 38°02' W 009°06'9 9.5
2015-Mar-20 16:33N 38°06' W 009°18'10 9.5
2015-Mar-20 15:33N 38°09' W 009°29'10 9.5
2015-Mar-20 14:33N 38°13' W 009°40'34 8.2
2015-Mar-20 10:24N 38°37' W 010°11'  

Dump ship's entire track history